Time;durP1;ratioP1;P1;durP2;ratioP2;P2;SDS_P1;SDS_P2;PMS_P1;PMS_P2;Temp;Humidity;BMP_temperature;BMP_pressure;BME280_temperature;BME280_humidity;BME280_pressure;Samples;Min_cycle;Max_cycle;Signal;HPM_P1;HPM_P2
2023/10/07 00:02:15;;;;;;;4.97;2.80;;;;;;;;;;5003040;28;20035;-80
2023/10/07 00:04:41;;;;;;;6.25;3.00;;;;;;;;;;4998542;28;20575;-79
2023/10/07 00:07:10;;;;;;;6.43;2.60;;;;;;;;;;5009129;28;20041;-80
2023/10/07 00:09:43;;;;;;;7.13;2.90;;;;;;;;;;5005924;28;20037;-81
2023/10/07 00:12:13;;;;;;;4.38;2.58;;;;;;;;;;5010090;28;20030;-80
2023/10/07 00:14:40;;;;;;;5.75;2.60;;;;;;;;;;5015081;28;20037;-80
2023/10/07 00:17:09;;;;;;;5.90;2.63;;;;;;;;;;5010413;28;20042;-80
2023/10/07 00:19:35;;;;;;;5.30;2.70;;;;;;;;;;5019324;28;20690;-80
2023/10/07 00:22:08;;;;;;;6.13;2.70;;;;;;;;;;4998149;28;20069;-80
2023/10/07 00:24:39;;;;;;;7.65;3.40;;;;;;;;;;5008434;28;20026;-80
2023/10/07 00:27:06;;;;;;;7.50;3.00;;;;;;;;;;5006198;28;20042;-80
2023/10/07 00:29:46;;;;;;;7.85;3.00;;;;;;;;;;5000073;28;20065;-80
2023/10/07 00:32:17;;;;;;;5.05;2.70;;;;;;;;;;5009114;28;20036;-80
2023/10/07 00:34:44;;;;;;;6.28;3.00;;;;;;;;;;5006294;28;20487;-79
2023/10/07 00:37:10;;;;;;;5.00;2.70;;;;;;;;;;5001118;28;20030;-80
2023/10/07 00:39:38;;;;;;;5.78;3.03;;;;;;;;;;5005001;28;20144;-77
2023/10/07 00:42:07;;;;;;;5.30;2.80;;;;;;;;;;5012509;28;20022;-79
2023/10/07 00:44:33;;;;;;;7.72;2.67;;;;;;;;;;5011983;28;20073;-80
2023/10/07 00:49:46;;;;;;;7.13;2.58;;;;;;;;;;5011442;28;20029;-80
2023/10/07 00:52:27;;;;;;;5.47;2.78;;;;;;;;;;5005489;28;20045;-79
2023/10/07 00:55:00;;;;;;;5.97;2.92;;;;;;;;;;5010651;28;20034;-79
2023/10/07 00:59:57;;;;;;;6.78;2.92;;;;;;;;;;5004869;28;20043;-79
2023/10/07 01:02:32;;;;;;;4.75;2.65;;;;;;;;;;4998915;28;20034;-80
2023/10/07 01:07:52;;;;;;;6.30;2.95;;;;;;;;;;5019921;28;20040;-80
2023/10/07 01:10:24;;;;;;;5.20;2.80;;;;;;;;;;5006516;28;20400;-80
2023/10/07 01:12:51;;;;;;;8.20;3.05;;;;;;;;;;5009688;28;20038;-80
2023/10/07 01:17:47;;;;;;;5.78;2.83;;;;;;;;;;5003259;28;20077;-80
2023/10/07 01:20:13;;;;;;;8.40;3.88;;;;;;;;;;4996614;28;20096;-79
2023/10/07 01:23:02;;;;;;;5.93;2.53;;;;;;;;;;5010088;28;20038;-80
2023/10/07 01:25:28;;;;;;;5.00;2.72;;;;;;;;;;5005111;28;20034;-79
2023/10/07 01:27:54;;;;;;;7.00;2.80;;;;;;;;;;5013207;28;20092;-78
2023/10/07 01:30:26;;;;;;;4.70;2.83;;;;;;;;;;5012861;28;20049;-79
2023/10/07 01:38:33;;;;;;;7.03;3.00;;;;;;;;;;5010790;28;20122;-78
2023/10/07 01:41:06;;;;;;;6.60;2.90;;;;;;;;;;5003959;28;20125;-79
2023/10/07 01:43:39;;;;;;;5.57;2.60;;;;;;;;;;5008560;28;20058;-79
2023/10/07 01:46:07;;;;;;;5.68;2.67;;;;;;;;;;4997056;28;20092;-79
2023/10/07 01:48:35;;;;;;;7.63;2.78;;;;;;;;;;5007856;28;20041;-80
2023/10/07 01:51:05;;;;;;;7.43;3.10;;;;;;;;;;5002885;28;20045;-80
2023/10/07 01:53:32;;;;;;;4.72;2.67;;;;;;;;;;5006707;28;20036;-80
2023/10/07 01:55:58;;;;;;;6.38;2.88;;;;;;;;;;4994332;28;20026;-80
2023/10/07 01:58:25;;;;;;;4.82;2.80;;;;;;;;;;5018552;28;20223;-80
2023/10/07 02:00:57;;;;;;;8.40;2.90;;;;;;;;;;5024167;28;20121;-79
2023/10/07 02:03:25;;;;;;;4.35;2.78;;;;;;;;;;5012956;28;20045;-80
2023/10/07 02:05:52;;;;;;;7.20;2.92;;;;;;;;;;5005818;28;20073;-79
2023/10/07 02:08:22;;;;;;;5.22;2.97;;;;;;;;;;5000559;28;20033;-79
2023/10/07 02:10:50;;;;;;;6.15;3.25;;;;;;;;;;5013112;28;20056;-80
2023/10/07 02:13:19;;;;;;;6.15;2.85;;;;;;;;;;5013517;28;20096;-79
2023/10/07 02:15:52;;;;;;;4.47;2.60;;;;;;;;;;5007283;28;20062;-80
2023/10/07 02:18:18;;;;;;;7.85;3.10;;;;;;;;;;4999662;28;20121;-80
2023/10/07 02:20:49;;;;;;;7.40;3.20;;;;;;;;;;5012035;28;20040;-79
2023/10/07 02:23:21;;;;;;;4.63;2.50;;;;;;;;;;5022817;28;20038;-80
2023/10/07 02:25:49;;;;;;;6.20;2.80;;;;;;;;;;4996950;28;20459;-80
2023/10/07 02:28:16;;;;;;;6.55;3.15;;;;;;;;;;5007146;28;20036;-80
2023/10/07 02:30:51;;;;;;;5.60;2.70;;;;;;;;;;5010703;28;20045;-79
2023/10/07 02:33:21;;;;;;;5.15;3.05;;;;;;;;;;5003315;28;20069;-79
2023/10/07 02:35:54;;;;;;;6.38;2.80;;;;;;;;;;5003488;28;20041;-77
2023/10/07 02:38:26;;;;;;;6.32;2.83;;;;;;;;;;5005579;28;20034;-80
2023/10/07 02:40:52;;;;;;;7.05;3.00;;;;;;;;;;5005134;28;20508;-79
2023/10/07 02:43:18;;;;;;;6.78;2.78;;;;;;;;;;5013596;28;20049;-79
2023/10/07 02:45:43;;;;;;;5.30;2.58;;;;;;;;;;5009313;28;20943;-79
2023/10/07 02:48:12;;;;;;;7.30;3.28;;;;;;;;;;4997906;28;20022;-80
2023/10/07 02:50:42;;;;;;;7.90;2.97;;;;;;;;;;5001616;28;20037;-77
2023/10/07 02:53:15;;;;;;;4.75;2.70;;;;;;;;;;5014509;28;20032;-80
2023/10/07 02:55:47;;;;;;;7.20;2.92;;;;;;;;;;5014811;28;20147;-80
2023/10/07 02:58:27;;;;;;;5.27;3.00;;;;;;;;;;5019949;28;20049;-80
2023/10/07 03:00:58;;;;;;;4.40;2.90;;;;;;;;;;5015368;28;20037;-80
2023/10/07 03:05:58;;;;;;;7.00;2.90;;;;;;;;;;5007044;28;20416;-79
2023/10/07 03:08:41;;;;;;;7.22;2.80;;;;;;;;;;4998526;28;20030;-78
2023/10/07 03:11:11;;;;;;;4.40;2.60;;;;;;;;;;5008401;28;20070;-80
2023/10/07 03:13:45;;;;;;;4.85;2.75;;;;;;;;;;5006303;28;20983;-80
2023/10/07 03:24:13;;;;;;;5.57;2.75;;;;;;;;;;5002322;28;20039;-80
2023/10/07 03:26:45;;;;;;;8.48;2.83;;;;;;;;;;5004003;28;20030;-79
2023/10/07 03:29:24;;;;;;;7.43;3.08;;;;;;;;;;5008430;28;20033;-79
2023/10/07 03:31:49;;;;;;;5.47;2.97;;;;;;;;;;5002793;28;20065;-79
2023/10/07 03:34:15;;;;;;;7.30;3.15;;;;;;;;;;5001040;28;20122;-78
2023/10/07 03:41:51;;;;;;;;;;;;;;;;;;5011570;28;20029;-79
2023/10/07 03:44:19;;;;;;;4.90;2.78;;;;;;;;;;5014315;28;19941;-79
2023/10/07 03:46:49;;;;;;;5.75;2.80;;;;;;;;;;5008020;28;20034;-80
2023/10/07 03:49:16;;;;;;;5.93;2.90;;;;;;;;;;5002413;28;20030;-80
2023/10/07 03:51:42;;;;;;;6.38;3.05;;;;;;;;;;5007219;28;20045;-80
2023/10/07 03:54:12;;;;;;;7.15;3.40;;;;;;;;;;5008150;28;20036;-79
2023/10/07 03:56:38;;;;;;;4.43;2.70;;;;;;;;;;5006664;28;20099;-80
2023/10/07 03:59:05;;;;;;;6.20;3.30;;;;;;;;;;5014120;28;20036;-80
2023/10/07 04:01:32;;;;;;;4.90;2.55;;;;;;;;;;5012196;28;20076;-80
2023/10/07 04:04:00;;;;;;;6.45;2.85;;;;;;;;;;5007149;28;20038;-79
2023/10/07 04:06:30;;;;;;;6.32;2.72;;;;;;;;;;5000297;28;20074;-80
2023/10/07 04:09:05;;;;;;;5.05;2.70;;;;;;;;;;5014547;28;20458;-80
2023/10/07 04:11:39;;;;;;;6.72;2.80;;;;;;;;;;5006570;28;20064;-80
2023/10/07 04:14:27;;;;;;;5.95;2.78;;;;;;;;;;5002201;28;20065;-80
2023/10/07 04:16:54;;;;;;;6.53;2.90;;;;;;;;;;5004900;28;20045;-79
2023/10/07 04:21:50;;;;;;;5.72;2.95;;;;;;;;;;5001495;28;20038;-80
2023/10/07 04:24:18;;;;;;;8.70;3.72;;;;;;;;;;5000162;28;20502;-79
2023/10/07 04:26:54;;;;;;;5.40;2.78;;;;;;;;;;5011537;28;20038;-79
2023/10/07 04:29:26;;;;;;;5.38;2.85;;;;;;;;;;5005412;28;20460;-79
2023/10/07 04:31:53;;;;;;;5.55;2.95;;;;;;;;;;4996892;28;20493;-78
2023/10/07 04:34:20;;;;;;;6.75;2.95;;;;;;;;;;5011837;28;20069;-78
2023/10/07 04:37:38;;;;;;;5.07;2.80;;;;;;;;;;5007108;28;20121;-78
2023/10/07 04:39:38;;;;;;;5.72;3.03;;;;;;;;;;4994268;28;20493;-78
2023/10/07 04:42:07;;;;;;;4.80;2.85;;;;;;;;;;5004739;28;20038;-78
2023/10/07 04:47:20;;;;;;;5.50;3.00;;;;;;;;;;5008235;28;20038;-79
2023/10/07 04:49:56;;;;;;;8.48;3.00;;;;;;;;;;5001052;28;20125;-78
2023/10/07 04:52:28;;;;;;;4.90;3.00;;;;;;;;;;5009079;28;20117;-79
2023/10/07 04:54:54;;;;;;;5.65;2.85;;;;;;;;;;5004265;28;20038;-78
2023/10/07 04:57:39;;;;;;;5.57;3.15;;;;;;;;;;4996537;28;20523;-79
2023/10/07 05:00:09;;;;;;;5.10;2.88;;;;;;;;;;5007700;28;20061;-79
2023/10/07 05:02:35;;;;;;;6.03;2.75;;;;;;;;;;5011251;28;20038;-79
2023/10/07 05:05:13;;;;;;;7.38;2.92;;;;;;;;;;4999216;28;20025;-79
2023/10/07 05:07:39;;;;;;;6.22;3.20;;;;;;;;;;5006378;28;20049;-81
2023/10/07 05:10:08;;;;;;;5.90;2.92;;;;;;;;;;5005177;28;20017;-80
2023/10/07 05:12:34;;;;;;;7.25;3.45;;;;;;;;;;5007976;28;20480;-79
2023/10/07 05:15:05;;;;;;;7.85;3.03;;;;;;;;;;5012261;28;20117;-80
2023/10/07 05:17:36;;;;;;;6.68;3.30;;;;;;;;;;5007526;28;20045;-78
2023/10/07 05:20:06;;;;;;;6.03;2.90;;;;;;;;;;5007886;28;20045;-78
2023/10/07 05:22:31;;;;;;;5.88;2.95;;;;;;;;;;4995811;28;20030;-79
2023/10/07 05:24:59;;;;;;;5.70;2.90;;;;;;;;;;5009234;28;20036;-79
2023/10/07 05:27:25;;;;;;;5.55;2.80;;;;;;;;;;5003314;28;20034;-79
2023/10/07 05:29:50;;;;;;;6.22;3.10;;;;;;;;;;4997622;28;20042;-78
2023/10/07 05:32:19;;;;;;;6.68;3.22;;;;;;;;;;5002548;28;20100;-77
2023/10/07 05:34:48;;;;;;;5.28;3.00;;;;;;;;;;5005155;28;20042;-79
2023/10/07 05:37:15;;;;;;;3.83;2.67;;;;;;;;;;5008491;28;20056;-80
2023/10/07 05:39:44;;;;;;;5.50;2.95;;;;;;;;;;5009326;28;20409;-79
2023/10/07 05:42:11;;;;;;;4.85;2.70;;;;;;;;;;5007229;28;20523;-79
2023/10/07 05:44:38;;;;;;;5.03;2.90;;;;;;;;;;5002594;28;20037;-78
2023/10/07 05:47:05;;;;;;;8.23;3.50;;;;;;;;;;5002187;28;20042;-78
2023/10/07 05:49:33;;;;;;;5.50;2.95;;;;;;;;;;5011399;28;20100;-80
2023/10/07 05:51:58;;;;;;;6.32;2.83;;;;;;;;;;5006361;28;20175;-78
2023/10/07 05:54:28;;;;;;;6.63;2.90;;;;;;;;;;5015333;28;20102;-80
2023/10/07 05:56:55;;;;;;;5.93;3.00;;;;;;;;;;5007549;28;20030;-79
2023/10/07 05:59:23;;;;;;;5.45;2.95;;;;;;;;;;5011779;28;20035;-77
2023/10/07 06:01:48;;;;;;;6.60;3.05;;;;;;;;;;5009523;28;20506;-79
2023/10/07 06:04:14;;;;;;;6.85;3.13;;;;;;;;;;5015099;28;20045;-78
2023/10/07 06:06:42;;;;;;;5.60;2.75;;;;;;;;;;5015648;28;20042;-77
2023/10/07 06:09:13;;;;;;;4.72;2.85;;;;;;;;;;5008201;28;20042;-78
2023/10/07 06:11:40;;;;;;;5.20;2.90;;;;;;;;;;5012601;28;20040;-79
2023/10/07 06:14:06;;;;;;;5.50;3.03;;;;;;;;;;5016997;28;20065;-79
2023/10/07 06:16:32;;;;;;;7.07;2.83;;;;;;;;;;5012222;28;20115;-79
2023/10/07 06:18:58;;;;;;;4.85;2.90;;;;;;;;;;5006311;28;20034;-79
2023/10/07 06:21:31;;;;;;;6.90;3.00;;;;;;;;;;5003941;28;20048;-78
2023/10/07 06:24:04;;;;;;;4.90;3.00;;;;;;;;;;5014837;28;20038;-79
2023/10/07 06:26:31;;;;;;;5.65;3.08;;;;;;;;;;5007496;28;20046;-79
2023/10/07 06:28:57;;;;;;;4.90;2.78;;;;;;;;;;5004226;28;20014;-80
2023/10/07 06:31:26;;;;;;;5.85;2.80;;;;;;;;;;5016575;28;20112;-79
2023/10/07 06:34:03;;;;;;;4.72;2.88;;;;;;;;;;5006935;28;20105;-79
2023/10/07 06:36:30;;;;;;;7.22;3.13;;;;;;;;;;5004073;28;20076;-80
2023/10/07 06:39:01;;;;;;;6.65;2.90;;;;;;;;;;5009816;28;20117;-79
2023/10/07 06:41:29;;;;;;;6.65;2.75;;;;;;;;;;5011172;28;20466;-79
2023/10/07 06:44:08;;;;;;;6.20;2.80;;;;;;;;;;5011946;28;20041;-80
2023/10/07 06:46:40;;;;;;;6.28;3.28;;;;;;;;;;5001164;28;20038;-79
2023/10/07 06:49:18;;;;;;;5.28;2.80;;;;;;;;;;5013643;28;20495;-79
2023/10/07 06:51:45;;;;;;;6.10;3.00;;;;;;;;;;5009062;28;20125;-80
2023/10/07 06:54:13;;;;;;;5.28;2.83;;;;;;;;;;5015974;28;20037;-79
2023/10/07 06:56:39;;;;;;;5.65;2.83;;;;;;;;;;5012820;28;20038;-79
2023/10/07 06:59:06;;;;;;;6.50;3.10;;;;;;;;;;5004699;28;20041;-80
2023/10/07 07:04:10;;;;;;;5.35;2.90;;;;;;;;;;5013082;28;20033;-80
2023/10/07 07:06:43;;;;;;;5.03;2.92;;;;;;;;;;5012149;28;20049;-79
2023/10/07 07:12:04;;;;;;;6.00;2.67;;;;;;;;;;5001344;28;20080;-79
2023/10/07 07:14:30;;;;;;;6.07;3.10;;;;;;;;;;5009922;28;20591;-78
2023/10/07 07:16:57;;;;;;;6.00;3.10;;;;;;;;;;5004279;28;20041;-78
2023/10/07 07:19:29;;;;;;;5.78;3.28;;;;;;;;;;4998495;28;20096;-79
2023/10/07 07:21:57;;;;;;;7.20;3.22;;;;;;;;;;5007574;28;20045;-79
2023/10/07 07:24:25;;;;;;;5.45;2.70;;;;;;;;;;5006195;28;20058;-80
2023/10/07 07:26:52;;;;;;;4.47;2.22;;;;;;;;;;4999352;28;20439;-80
2023/10/07 07:29:23;;;;;;;6.38;3.22;;;;;;;;;;5007469;28;20030;-80
2023/10/07 07:31:49;;;;;;;5.20;2.85;;;;;;;;;;5008016;28;20118;-78
2023/10/07 07:34:26;;;;;;;8.68;3.05;;;;;;;;;;5001638;28;20038;-80
2023/10/07 07:37:03;;;;;;;5.47;2.72;;;;;;;;;;5000204;28;20037;-79
2023/10/07 07:39:30;;;;;;;4.65;2.90;;;;;;;;;;5009170;28;20066;-78
2023/10/07 07:42:00;;;;;;;6.60;3.05;;;;;;;;;;5001395;28;20037;-78
2023/10/07 07:44:35;;;;;;;5.85;3.30;;;;;;;;;;4997819;28;20041;-78
2023/10/07 07:47:04;;;;;;;6.78;3.08;;;;;;;;;;5004908;28;20099;-78
2023/10/07 07:49:32;;;;;;;7.60;3.15;;;;;;;;;;5003435;28;20033;-80
2023/10/07 07:51:59;;;;;;;5.53;3.10;;;;;;;;;;4995963;28;20042;-78
2023/10/07 07:54:24;;;;;;;7.55;3.00;;;;;;;;;;5006443;28;20038;-78
2023/10/07 07:56:51;;;;;;;13.27;3.25;;;;;;;;;;5005805;28;20056;-79
2023/10/07 07:59:17;;;;;;;4.40;2.72;;;;;;;;;;5000377;28;20088;-80
2023/10/07 08:01:44;;;;;;;6.38;2.83;;;;;;;;;;4997764;28;20136;-79
2023/10/07 08:04:34;;;;;;;6.57;2.78;;;;;;;;;;5007411;28;20034;-79
2023/10/07 08:07:05;;;;;;;5.55;2.80;;;;;;;;;;5003296;28;20034;-85
2023/10/07 08:09:36;;;;;;;7.97;3.30;;;;;;;;;;5017282;28;20574;-85
2023/10/07 08:12:09;;;;;;;6.15;2.80;;;;;;;;;;5017649;28;20045;-85
2023/10/07 08:14:37;;;;;;;5.18;2.90;;;;;;;;;;5013005;28;20046;-85
2023/10/07 08:17:08;;;;;;;5.95;2.85;;;;;;;;;;5008895;28;20132;-84
2023/10/07 08:19:35;;;;;;;5.97;2.90;;;;;;;;;;5019716;28;20052;-85
2023/10/07 08:22:02;;;;;;;5.30;2.80;;;;;;;;;;5017368;28;20120;-85
2023/10/07 08:24:31;;;;;;;6.47;2.90;;;;;;;;;;5011496;28;20038;-85
2023/10/07 08:27:03;;;;;;;5.07;2.70;;;;;;;;;;5009932;28;20029;-84
2023/10/07 08:29:40;;;;;;;5.95;2.97;;;;;;;;;;5018137;28;20042;-84
2023/10/07 08:32:28;;;;;;;8.35;3.28;;;;;;;;;;5011879;28;20042;-87
2023/10/07 08:34:59;;;;;;;4.90;2.72;;;;;;;;;;5004600;28;20124;-87
2023/10/07 08:37:32;;;;;;;6.97;2.88;;;;;;;;;;5015758;28;20037;-86
2023/10/07 08:40:14;;;;;;;5.95;3.15;;;;;;;;;;5006318;28;20038;-86
2023/10/07 08:42:45;;;;;;;6.57;3.28;;;;;;;;;;5018415;28;20029;-86
2023/10/07 08:45:15;;;;;;;5.50;2.97;;;;;;;;;;5019464;28;20072;-87
2023/10/07 08:47:50;;;;;;;6.05;3.33;;;;;;;;;;5014121;28;20034;-86
2023/10/07 08:50:23;;;;;;;5.35;3.00;;;;;;;;;;5008225;28;20042;-86
2023/10/07 08:53:06;;;;;;;4.88;2.92;;;;;;;;;;5018464;28;20056;-86
2023/10/07 08:55:32;;;;;;;6.63;3.03;;;;;;;;;;5016134;28;20044;-88
2023/10/07 08:58:02;;;;;;;6.47;2.88;;;;;;;;;;5009888;28;20034;-88
2023/10/07 09:00:33;;;;;;;4.85;2.65;;;;;;;;;;5019748;28;20034;-86
2023/10/07 09:02:59;;;;;;;7.10;3.00;;;;;;;;;;5012239;28;20074;-86
2023/10/07 09:05:27;;;;;;;7.93;2.80;;;;;;;;;;5008003;28;20034;-85
2023/10/07 09:07:56;;;;;;;7.07;3.00;;;;;;;;;;5101556;23;20041;-85
2023/10/07 09:10:28;;;;;;;5.45;3.17;;;;;;;;;;5035233;28;20495;-83
2023/10/07 09:12:56;;;;;;;5.10;2.80;;;;;;;;;;5033306;28;20072;-82
2023/10/07 09:15:29;;;;;;;7.20;3.10;;;;;;;;;;5032384;28;20041;-82
2023/10/07 09:18:04;;;;;;;10.13;3.13;;;;;;;;;;5031210;28;20442;-82
2023/10/07 09:20:35;;;;;;;5.90;2.97;;;;;;;;;;5034505;28;20041;-82
2023/10/07 09:23:07;;;;;;;8.35;2.85;;;;;;;;;;5032919;28;20041;-82
2023/10/07 09:25:33;;;;;;;5.97;3.10;;;;;;;;;;5035330;28;20069;-82
2023/10/07 09:28:01;;;;;;;4.57;2.90;;;;;;;;;;5035057;28;20091;-82
2023/10/07 09:33:17;;;;;;;7.30;3.42;;;;;;;;;;5034660;28;20218;-84
2023/10/07 09:35:43;;;;;;;;;;;;;;;;;;5033754;28;20037;-81
2023/10/07 09:38:33;;;;;;;5.28;2.78;;;;;;;;;;5035208;28;20018;-83
2023/10/07 09:43:51;;;;;;;5.75;2.65;;;;;;;;;;5034358;28;20041;-84
2023/10/07 09:47:10;;;;;;;6.18;2.78;;;;;;;;;;5034566;28;20065;-84
2023/10/07 09:49:05;;;;;;;6.40;2.95;;;;;;;;;;5028499;28;20048;-83
2023/10/07 09:51:35;;;;;;;5.95;2.65;;;;;;;;;;5034216;28;20388;-84
2023/10/07 09:54:23;;;;;;;4.97;2.60;;;;;;;;;;5037947;28;20461;-83
2023/10/07 09:57:06;;;;;;;9.85;4.28;;;;;;;;;;5036299;28;20044;-83
2023/10/07 09:59:59;;;;;;;37.15;10.18;;;;;;;;;;5038500;28;20061;-83
2023/10/07 10:02:31;;;;;;;7.28;3.17;;;;;;;;;;5018797;28;20426;-83
2023/10/07 10:05:24;;;;;;;8.35;2.88;;;;;;;;;;5036090;28;20060;-83
2023/10/07 10:08:11;;;;;;;5.20;2.63;;;;;;;;;;5036784;28;20029;-82
2023/10/07 10:10:44;;;;;;;3.97;2.38;;;;;;;;;;5028235;28;20041;-82
2023/10/07 10:13:28;;;;;;;5.97;2.80;;;;;;;;;;5032295;28;20033;-82
2023/10/07 10:16:00;;;;;;;4.18;2.40;;;;;;;;;;5032228;28;20045;-82
2023/10/07 10:18:40;;;;;;;6.45;2.60;;;;;;;;;;5033407;28;20083;-83
2023/10/07 10:21:12;;;;;;;4.63;2.78;;;;;;;;;;5031663;28;20057;-83
2023/10/07 10:23:44;;;;;;;5.53;2.50;;;;;;;;;;5031583;28;20426;-84
2023/10/07 10:26:14;;;;;;;4.20;2.72;;;;;;;;;;5028630;28;20546;-83
2023/10/07 10:28:59;;;;;;;5.75;2.90;;;;;;;;;;5033042;28;20028;-84
2023/10/07 10:31:32;;;;;;;5.05;2.50;;;;;;;;;;5032385;28;20112;-84
2023/10/07 10:34:05;;;;;;;5.03;2.63;;;;;;;;;;5032846;28;20029;-85
2023/10/07 10:36:31;;;;;;;;;;;;;;;;;;5036778;28;20047;-81
2023/10/07 10:39:00;;;;;;;5.60;2.50;;;;;;;;;;5036029;28;19909;-83
2023/10/07 10:41:29;;;;;;;6.20;2.97;;;;;;;;;;5034270;28;20076;-83
2023/10/07 10:44:06;;;;;;;5.45;3.00;;;;;;;;;;5032339;28;20426;-83
2023/10/07 10:46:48;;;;;;;6.90;3.10;;;;;;;;;;5034742;28;20187;-83
2023/10/07 10:49:20;;;;;;;4.47;2.72;;;;;;;;;;5034806;28;20037;-83
2023/10/07 10:51:50;;;;;;;6.47;2.78;;;;;;;;;;5034278;28;20095;-84
2023/10/07 10:54:18;;;;;;;6.50;2.67;;;;;;;;;;5033393;28;20044;-84
2023/10/07 10:56:48;;;;;;;4.95;2.67;;;;;;;;;;5036926;28;20045;-84
2023/10/07 10:59:15;;;;;;;6.40;3.30;;;;;;;;;;5049823;28;20089;-83
2023/10/07 11:01:44;;;;;;;8.18;3.42;;;;;;;;;;5020392;28;20136;-84
2023/10/07 11:04:12;;;;;;;9.02;3.92;;;;;;;;;;5035959;28;20047;-85
2023/10/07 11:06:39;;;;;;;6.28;3.25;;;;;;;;;;5035926;28;20041;-83
2023/10/07 11:09:05;;;;;;;6.65;2.95;;;;;;;;;;5035286;28;20029;-83
2023/10/07 11:11:35;;;;;;;4.57;2.70;;;;;;;;;;5036146;28;20086;-83
2023/10/07 11:14:07;;;;;;;5.35;2.92;;;;;;;;;;5037092;28;20499;-84
2023/10/07 11:16:43;;;;;;;5.85;2.63;;;;;;;;;;5035051;28;20086;-83
2023/10/07 11:19:12;;;;;;;4.43;2.50;;;;;;;;;;5045677;28;20458;-83
2023/10/07 11:21:41;;;;;;;4.72;2.58;;;;;;;;;;5036632;28;20041;-85
2023/10/07 11:24:07;;;;;;;5.88;2.95;;;;;;;;;;5034899;28;20048;-83
2023/10/07 11:26:33;;;;;;;5.38;2.70;;;;;;;;;;5034223;28;20041;-87
2023/10/07 11:29:11;;;;;;;5.88;2.78;;;;;;;;;;5035320;28;20068;-87
2023/10/07 11:31:37;;;;;;;4.82;2.67;;;;;;;;;;5032374;28;20538;-86
2023/10/07 11:34:04;;;;;;;4.25;2.55;;;;;;;;;;5035552;28;20041;-86
2023/10/07 11:36:43;;;;;;;4.72;2.65;;;;;;;;;;5035576;28;20072;-87
2023/10/07 11:39:09;;;;;;;4.35;2.50;;;;;;;;;;5035300;28;20033;-86
2023/10/07 11:41:36;;;;;;;5.50;2.90;;;;;;;;;;5034834;28;20048;-86
2023/10/07 11:44:03;;;;;;;5.75;2.85;;;;;;;;;;5034267;28;20037;-87
2023/10/07 11:46:29;;;;;;;5.35;2.70;;;;;;;;;;5033472;28;20065;-86
2023/10/07 11:48:56;;;;;;;5.10;2.88;;;;;;;;;;5035174;28;20033;-87
2023/10/07 11:51:24;;;;;;;5.82;3.05;;;;;;;;;;5034792;28;20083;-86
2023/10/07 11:53:50;;;;;;;5.63;2.65;;;;;;;;;;5035174;28;20033;-86
2023/10/07 11:56:16;;;;;;;7.03;2.95;;;;;;;;;;5034533;28;20068;-86
2023/10/07 11:58:45;;;;;;;7.50;2.65;;;;;;;;;;5035285;28;20578;-87
2023/10/07 12:01:11;;;;;;;4.53;2.78;;;;;;;;;;5035117;28;20044;-87
2023/10/07 12:03:39;;;;;;;9.55;3.20;;;;;;;;;;5037635;28;20037;-86
2023/10/07 12:06:05;;;;;;;5.25;2.97;;;;;;;;;;5040208;28;20059;-87
2023/10/07 12:08:34;;;;;;;7.80;2.90;;;;;;;;;;5043896;28;20089;-88
2023/10/07 12:11:00;;;;;;;4.78;2.70;;;;;;;;;;5043648;28;20037;-87
2023/10/07 12:13:27;;;;;;;5.18;2.88;;;;;;;;;;5043602;28;20111;-88
2023/10/07 12:15:53;;;;;;;6.15;2.70;;;;;;;;;;5045251;28;20045;-87
2023/10/07 12:18:19;;;;;;;7.25;3.20;;;;;;;;;;5043705;28;20021;-88
2023/10/07 12:20:45;;;;;;;5.22;2.88;;;;;;;;;;5040295;28;20056;-87
2023/10/07 12:23:10;;;;;;;5.50;3.10;;;;;;;;;;5031604;28;20052;-89
2023/10/07 12:25:37;;;;;;;5.22;3.03;;;;;;;;;;5036263;28;20045;-89
2023/10/07 12:28:05;;;;;;;6.43;3.10;;;;;;;;;;5041950;28;20029;-89
2023/10/07 12:30:31;;;;;;;6.18;2.90;;;;;;;;;;5049438;28;20037;-88
2023/10/07 12:32:57;;;;;;;5.20;3.05;;;;;;;;;;5044298;28;20045;-88
2023/10/07 12:35:24;;;;;;;5.93;3.03;;;;;;;;;;5043775;28;20038;-88
2023/10/07 12:37:52;;;;;;;5.72;2.70;;;;;;;;;;5043733;28;20442;-88
2023/10/07 12:40:18;;;;;;;8.20;3.13;;;;;;;;;;5043813;28;20128;-88
2023/10/07 12:42:45;;;;;;;5.38;3.00;;;;;;;;;;5035767;28;20041;-89
2023/10/07 12:45:13;;;;;;;6.45;3.25;;;;;;;;;;5034617;28;20048;-89
2023/10/07 12:47:42;;;;;;;6.32;3.17;;;;;;;;;;5035672;28;20487;-89
2023/10/07 12:50:20;;;;;;;8.45;3.10;;;;;;;;;;5035518;28;20034;-88
2023/10/07 12:52:50;;;;;;;6.63;2.88;;;;;;;;;;5036852;28;20110;-89
2023/10/07 12:55:17;;;;;;;7.53;2.83;;;;;;;;;;5036021;28;20052;-87
2023/10/07 12:57:42;;;;;;;8.27;3.20;;;;;;;;;;5048277;28;20495;-86
2023/10/07 13:00:18;;;;;;;5.43;2.88;;;;;;;;;;5034779;28;20048;-87
2023/10/07 13:02:45;;;;;;;5.45;2.85;;;;;;;;;;5029642;28;20029;-87
2023/10/07 13:05:17;;;;;;;7.95;2.97;;;;;;;;;;5033779;28;20043;-87
2023/10/07 13:07:47;;;;;;;7.83;2.80;;;;;;;;;;5046159;28;20697;-87
2023/10/07 13:10:13;;;;;;;4.38;2.80;;;;;;;;;;5034446;28;20038;-87
2023/10/07 13:12:39;;;;;;;6.85;2.97;;;;;;;;;;5034080;28;20406;-86
2023/10/07 13:15:15;;;;;;;6.50;3.03;;;;;;;;;;5033169;28;20091;-87
2023/10/07 13:17:45;;;;;;;5.32;2.90;;;;;;;;;;5034061;28;20041;-84
2023/10/07 13:20:20;;;;;;;5.35;2.90;;;;;;;;;;5033905;28;20067;-86
2023/10/07 13:22:50;;;;;;;4.75;2.90;;;;;;;;;;5031611;28;20049;-87
2023/10/07 13:25:19;;;;;;;5.78;2.90;;;;;;;;;;5033942;28;20034;-87
2023/10/07 13:27:46;;;;;;;9.52;3.13;;;;;;;;;;5034245;28;20025;-87
2023/10/07 13:30:12;;;;;;;5.93;3.00;;;;;;;;;;5033522;28;20091;-86
2023/10/07 13:32:47;;;;;;;6.38;2.80;;;;;;;;;;5033237;28;20041;-86
2023/10/07 13:35:15;;;;;;;5.93;2.97;;;;;;;;;;5034521;28;20086;-87
2023/10/07 13:37:43;;;;;;;5.15;2.88;;;;;;;;;;5033189;28;20487;-86
2023/10/07 13:40:15;;;;;;;9.77;2.97;;;;;;;;;;5035433;28;20040;-86
2023/10/07 13:42:47;;;;;;;5.03;2.93;;;;;;;;;;5047344;28;20045;-88
2023/10/07 13:45:30;;;;;;;6.38;3.10;;;;;;;;;;5035449;28;20534;-86
2023/10/07 13:47:56;;;;;;;6.22;2.78;;;;;;;;;;5035792;28;20041;-86
2023/10/07 13:50:27;;;;;;;5.93;2.85;;;;;;;;;;5033349;28;20044;-83
2023/10/07 13:58:11;;;;;;;5.22;2.88;;;;;;;;;;5032413;28;20033;-83
2023/10/07 14:00:44;;;;;;;6.20;3.00;;;;;;;;;;5027953;28;20039;-81
2023/10/07 14:03:19;;;;;;;4.90;2.90;;;;;;;;;;5031503;28;20052;-84
2023/10/07 14:05:51;;;;;;;5.20;3.20;;;;;;;;;;5031201;28;20396;-82
2023/10/07 14:08:20;;;;;;;5.30;3.13;;;;;;;;;;5031977;28;20068;-84
2023/10/07 14:10:55;;;;;;;5.78;3.20;;;;;;;;;;5034906;28;20033;-83
2023/10/07 14:13:23;;;;;;;5.03;3.13;;;;;;;;;;5036206;28;20029;-82
2023/10/07 14:15:49;;;;;;;7.85;3.67;;;;;;;;;;5035563;28;20033;-83
2023/10/07 14:18:19;;;;;;;11.10;3.97;;;;;;;;;;5038121;28;20044;-84
2023/10/07 14:20:52;;;;;;;7.40;3.83;;;;;;;;;;5033287;28;20196;-84
2023/10/07 14:23:18;;;;;;;6.45;4.47;;;;;;;;;;5027569;28;20491;-84
2023/10/07 14:25:43;;;;;;;6.80;4.18;;;;;;;;;;5036293;28;20110;-84
2023/10/07 14:28:08;;;;;;;8.68;4.30;;;;;;;;;;5025727;28;20053;-84
2023/10/07 14:30:34;;;;;;;6.78;4.03;;;;;;;;;;5036065;28;20108;-84
2023/10/07 14:32:59;;;;;;;8.75;3.75;;;;;;;;;;5035949;28;20036;-84
2023/10/07 14:35:25;;;;;;;9.48;3.40;;;;;;;;;;5036303;28;20487;-83
2023/10/07 14:37:51;;;;;;;6.22;2.90;;;;;;;;;;5035973;28;20049;-83
2023/10/07 14:40:17;;;;;;;6.60;3.15;;;;;;;;;;5033983;28;20044;-87
2023/10/07 14:42:44;;;;;;;5.68;3.17;;;;;;;;;;5034068;28;20518;-84
2023/10/07 14:45:10;;;;;;;4.75;2.80;;;;;;;;;;5024024;28;20018;-82
2023/10/07 14:47:35;;;;;;;8.95;3.50;;;;;;;;;;5021103;28;20446;-84
2023/10/07 14:50:00;;;;;;;5.22;3.05;;;;;;;;;;5036600;28;20530;-84
2023/10/07 14:52:27;;;;;;;5.13;3.05;;;;;;;;;;5035945;28;20471;-84
2023/10/07 14:54:54;;;;;;;5.88;2.80;;;;;;;;;;5034290;28;20128;-83
2023/10/07 14:57:21;;;;;;;5.22;2.70;;;;;;;;;;5034645;28;20037;-82
2023/10/07 14:59:46;;;;;;;6.97;2.88;;;;;;;;;;5034604;28;20025;-83
2023/10/07 15:02:13;;;;;;;6.18;2.85;;;;;;;;;;5034022;28;20053;-82
2023/10/07 15:04:41;;;;;;;5.70;2.97;;;;;;;;;;5034605;28;20168;-83
2023/10/07 15:07:07;;;;;;;5.85;2.75;;;;;;;;;;5034866;28;20029;-84
2023/10/07 15:09:34;;;;;;;8.85;3.17;;;;;;;;;;5031971;28;20082;-85
2023/10/07 15:12:05;;;;;;;6.93;2.90;;;;;;;;;;5033583;28;20044;-81
2023/10/07 15:14:30;;;;;;;4.45;2.70;;;;;;;;;;5033906;28;20471;-81
2023/10/07 15:16:56;;;;;;;6.53;3.05;;;;;;;;;;5033984;28;20136;-84
2023/10/07 15:19:21;;;;;;;5.13;2.83;;;;;;;;;;5033454;28;20112;-84
2023/10/07 15:21:51;;;;;;;7.28;3.13;;;;;;;;;;5034161;28;20040;-84
2023/10/07 15:24:16;;;;;;;5.82;3.13;;;;;;;;;;5034420;28;20060;-83
2023/10/07 15:26:43;;;;;;;5.25;2.83;;;;;;;;;;5033799;28;20026;-85
2023/10/07 15:29:08;;;;;;;5.60;2.80;;;;;;;;;;5033889;28;20501;-85
2023/10/07 15:31:34;;;;;;;5.63;2.80;;;;;;;;;;5033438;28;20030;-85
2023/10/07 15:34:06;;;;;;;5.43;2.67;;;;;;;;;;5030575;28;20169;-83
2023/10/07 15:36:31;;;;;;;7.80;2.80;;;;;;;;;;5016368;28;20084;-83
2023/10/07 15:38:57;;;;;;;6.72;2.90;;;;;;;;;;5034904;28;20816;-83
2023/10/07 15:41:24;;;;;;;5.75;2.70;;;;;;;;;;5033592;28;20033;-83
2023/10/07 15:43:50;;;;;;;4.70;2.58;;;;;;;;;;5034273;28;20123;-83
2023/10/07 15:46:16;;;;;;;5.32;2.80;;;;;;;;;;5033820;28;20120;-84
2023/10/07 15:48:42;;;;;;;4.60;2.60;;;;;;;;;;5031947;28;20037;-84
2023/10/07 15:51:09;;;;;;;5.43;2.70;;;;;;;;;;5033131;28;20036;-84
2023/10/07 15:53:36;;;;;;;5.53;2.53;;;;;;;;;;5033240;28;20069;-83